createdAt,value
2017-04-27T00:00:50.174Z,93.51
2017-04-27T00:01:51.435Z,93.42
2017-04-27T00:02:52.751Z,93.32
2017-04-27T00:03:54.012Z,93.51
2017-04-27T00:04:55.202Z,93.51
2017-04-27T00:05:56.447Z,93.32
2017-04-27T00:06:57.684Z,93.42
2017-04-27T00:07:58.969Z,93.51
2017-04-27T00:09:00.382Z,93.8
2017-04-27T00:10:01.599Z,93.89
2017-04-27T00:11:02.889Z,93.99
2017-04-27T00:12:04.116Z,93.7
2017-04-27T00:13:05.349Z,93.99
2017-04-27T00:14:06.666Z,93.8
2017-04-27T00:15:07.905Z,94.08
2017-04-27T00:16:09.181Z,93.89
2017-04-27T00:17:10.461Z,93.8
2017-04-27T00:18:11.693Z,93.51
2017-04-27T00:19:12.977Z,93.8
2017-04-27T00:20:14.198Z,93.61
2017-04-27T00:21:15.468Z,94.18
2017-04-27T00:22:16.836Z,94.18
2017-04-27T00:23:18.078Z,94.08
2017-04-27T00:24:19.296Z,94.56
2017-04-27T00:25:20.525Z,94.37
2017-04-27T00:26:21.764Z,94.56
2017-04-27T00:27:23.053Z,94.27
2017-04-27T00:28:24.297Z,94.37
2017-04-27T00:29:25.549Z,94.37
2017-04-27T00:30:26.806Z,94.27
2017-04-27T00:31:28.037Z,94.27
2017-04-27T00:32:29.298Z,94.37
2017-04-27T00:33:30.711Z,93.99
2017-04-27T00:34:32.157Z,93.99
2017-04-27T00:35:33.299Z,94.56
2017-04-27T00:36:34.544Z,94.46
2017-04-27T00:37:35.757Z,94.56
2017-04-27T00:38:37.000Z,94.46
2017-04-27T00:39:38.510Z,94.37
2017-04-27T00:40:39.763Z,94.56
2017-04-27T00:41:41.004Z,94.84
2017-04-27T00:42:42.221Z,94.46
2017-04-27T00:43:43.474Z,94.56
2017-04-27T00:44:44.714Z,95.5
2017-04-27T00:45:45.949Z,95.03
2017-04-27T00:46:47.229Z,95.12
2017-04-27T00:47:48.479Z,95.4
2017-04-27T00:48:49.707Z,95.12
2017-04-27T00:49:50.949Z,95.12
2017-04-27T00:50:52.178Z,94.98
2017-04-27T00:51:53.398Z,95.5
2017-04-27T00:52:54.671Z,95.21
2017-04-27T00:53:55.904Z,95.07
2017-04-27T00:54:57.133Z,95.36
2017-04-27T00:55:58.373Z,95.55
2017-04-27T00:56:59.609Z,95.26
2017-04-27T00:58:00.852Z,95.26
2017-04-27T00:59:02.101Z,95.45
2017-04-27T01:00:03.340Z,95.17
2017-04-27T01:01:04.649Z,95.45
2017-04-27T01:02:05.881Z,95.26
2017-04-27T01:03:07.115Z,95.26
2017-04-27T01:04:08.356Z,95.45
2017-04-27T01:05:09.602Z,95.17
2017-04-27T01:06:10.818Z,95.17
2017-04-27T01:07:12.227Z,95.07
2017-04-27T01:08:13.389Z,95.17
2017-04-27T01:09:14.605Z,94.98
2017-04-27T01:10:15.830Z,94.79
2017-04-27T01:11:17.091Z,94.89
2017-04-27T01:12:18.337Z,93.84
2017-04-27T01:13:19.673Z,94.23
2017-04-27T01:14:20.942Z,94.51
2017-04-27T01:15:22.154Z,94.04
2017-04-27T01:16:23.397Z,94.23
2017-04-27T01:17:24.634Z,94.23
2017-04-27T01:18:25.873Z,94.04
2017-04-27T01:19:27.104Z,93.56
2017-04-27T01:20:28.425Z,93.84
2017-04-27T01:21:29.679Z,93.37
2017-04-27T01:22:30.891Z,93.18
2017-04-27T01:23:32.152Z,93.46
2017-04-27T01:24:33.393Z,93.37
2017-04-27T01:25:34.702Z,93.46
2017-04-27T01:26:35.943Z,93.37
2017-04-27T01:27:37.168Z,92.9
2017-04-27T01:28:38.405Z,92.99
2017-04-27T01:29:39.645Z,93.08
2017-04-27T01:30:40.995Z,92.9
2017-04-27T01:31:42.236Z,93.08
2017-04-27T01:32:43.515Z,92.8
2017-04-27T01:33:44.742Z,92.43
2017-04-27T01:34:46.035Z,92.33
2017-04-27T01:35:47.273Z,92.61
2017-04-27T01:36:48.513Z,92.71
2017-04-27T01:37:49.760Z,92.33
2017-04-27T01:38:51.080Z,92.33
2017-04-27T01:39:52.313Z,92.33
2017-04-27T01:40:53.562Z,92.33
2017-04-27T01:41:54.819Z,92.52
2017-04-27T01:42:56.037Z,92.8
2017-04-27T01:43:57.375Z,92.52
2017-04-27T01:44:58.660Z,92.52
2017-04-27T01:45:59.843Z,92.05
2017-04-27T01:47:01.106Z,92.33
2017-04-27T01:48:02.322Z,92.43
2017-04-27T01:49:03.585Z,92.43
2017-04-27T01:50:04.791Z,91.95
2017-04-27T01:51:06.026Z,91.86
2017-04-27T01:52:07.279Z,91.57
2017-04-27T01:53:08.578Z,91.57
2017-04-27T01:54:09.819Z,91.29
2017-04-27T01:55:11.083Z,91
2017-04-27T01:56:12.276Z,90.91
2017-04-27T01:57:13.507Z,90.25
2017-04-27T01:58:14.746Z,90.53
2017-04-27T01:59:15.964Z,90.25
2017-04-27T02:00:17.272Z,90.06
2017-04-27T02:01:18.496Z,89.68
2017-04-27T02:02:19.735Z,89.68
2017-04-27T02:03:21.031Z,89.72
2017-04-27T02:04:22.309Z,89.01
2017-04-27T02:05:23.590Z,89.11
2017-04-27T02:06:24.830Z,89.01
2017-04-27T02:07:26.076Z,88.64
2017-04-27T02:08:27.307Z,89.01
2017-04-27T02:09:28.542Z,88.73
2017-04-27T02:10:29.792Z,88.82
2017-04-27T02:11:31.043Z,88.92
2017-04-27T02:12:32.323Z,88.92
2017-04-27T02:13:33.546Z,88.92
2017-04-27T02:14:34.790Z,88.82
2017-04-27T02:15:35.999Z,89.01
2017-04-27T02:16:37.304Z,89.2
2017-04-27T02:17:38.579Z,89.2
2017-04-27T02:18:39.813Z,89.11
2017-04-27T02:19:41.146Z,89.11
2017-04-27T02:20:42.376Z,89.01
2017-04-27T02:21:43.617Z,89.87
2017-04-27T02:22:44.887Z,89.58
2017-04-27T02:23:46.122Z,89.68
2017-04-27T02:24:47.365Z,89.77
2017-04-27T02:25:48.616Z,89.2
2017-04-27T02:26:49.906Z,89.49
2017-04-27T02:27:51.145Z,89.68
2017-04-27T02:28:52.373Z,89.87
2017-04-27T02:29:53.601Z,89.58
2017-04-27T02:30:54.818Z,89.77
2017-04-27T02:31:56.056Z,89.87
2017-04-27T02:32:57.286Z,90.06
2017-04-27T02:33:58.508Z,90.34
2017-04-27T02:34:59.746Z,90.25
2017-04-27T02:36:01.008Z,90.15
2017-04-27T02:37:02.232Z,90.72
2017-04-27T02:38:03.463Z,90.72
2017-04-27T02:39:04.812Z,90.34
2017-04-27T02:40:06.058Z,90.58
2017-04-27T02:41:07.274Z,90.39
2017-04-27T02:42:08.502Z,90.58
2017-04-27T02:43:09.739Z,90.67
2017-04-27T02:44:10.997Z,90.86
2017-04-27T02:45:12.348Z,90.67
2017-04-27T02:46:13.528Z,91.24
2017-04-27T02:47:14.769Z,91.43
2017-04-27T02:48:16.019Z,91.24
2017-04-27T02:49:17.249Z,91.62
2017-04-27T02:50:18.721Z,91.53
2017-04-27T02:51:19.959Z,91.62
2017-04-27T02:52:21.285Z,91.62
2017-04-27T02:53:22.509Z,91.43
2017-04-27T02:54:23.787Z,91.53
2017-04-27T02:55:25.009Z,91.15
2017-04-27T02:56:26.244Z,91.72
2017-04-27T02:57:27.495Z,91.81
2017-04-27T02:58:28.758Z,91.91
2017-04-27T02:59:29.957Z,91.91
2017-04-27T03:00:31.203Z,91.53
2017-04-27T03:01:32.445Z,91.53
2017-04-27T03:02:33.669Z,92
2017-04-27T03:03:34.925Z,91.81
2017-04-27T03:04:36.290Z,91.81
2017-04-27T03:05:37.515Z,91.72
2017-04-27T03:06:38.774Z,92
2017-04-27T03:07:39.990Z,92.1
2017-04-27T03:08:41.240Z,92.29
2017-04-27T03:09:42.481Z,92.47
2017-04-27T03:10:43.736Z,92.47
2017-04-27T03:11:44.943Z,92.47
2017-04-27T03:12:46.290Z,92.38
2017-04-27T03:13:47.507Z,92.47
2017-04-27T03:14:48.794Z,91.91
2017-04-27T03:15:50.069Z,91.81
2017-04-27T03:16:51.317Z,91.62
2017-04-27T03:17:52.659Z,91.62
2017-04-27T03:18:53.935Z,91.62
2017-04-27T03:19:55.173Z,91.91
2017-04-27T03:20:56.429Z,91.72
2017-04-27T03:21:57.665Z,91.81
2017-04-27T03:22:58.901Z,91.72
2017-04-27T03:24:00.128Z,91.91
2017-04-27T03:25:01.361Z,91.62
2017-04-27T03:26:02.668Z,92.19
2017-04-27T03:27:03.900Z,92.29
2017-04-27T03:28:05.141Z,92.57
2017-04-27T03:29:06.367Z,92.38
2017-04-27T03:30:07.621Z,92.38
2017-04-27T03:31:08.939Z,92.29
2017-04-27T03:32:10.239Z,92.38
2017-04-27T03:33:11.412Z,92.19
2017-04-27T03:34:12.645Z,92.1
2017-04-27T03:35:13.905Z,92.19
2017-04-27T03:36:15.212Z,92.43
2017-04-27T03:37:16.599Z,92.43
2017-04-27T03:38:17.848Z,92.61
2017-04-27T03:39:19.096Z,92.14
2017-04-27T03:40:20.388Z,92.33
2017-04-27T03:41:21.639Z,92.52
2017-04-27T03:42:22.848Z,92.52
2017-04-27T03:43:24.108Z,92.33
2017-04-27T03:44:25.336Z,92.43
2017-04-27T03:45:26.580Z,92.33
2017-04-27T03:46:27.799Z,92.24
2017-04-27T03:47:29.060Z,92.33
2017-04-27T03:48:30.291Z,92.71
2017-04-27T03:49:31.546Z,92.8
2017-04-27T03:50:32.856Z,92.99
2017-04-27T03:51:34.153Z,92.8
2017-04-27T03:52:35.391Z,93.09
2017-04-27T03:53:36.629Z,93.18
2017-04-27T03:54:37.858Z,92.8
2017-04-27T03:55:39.108Z,93.28
2017-04-27T03:56:40.439Z,93.09
2017-04-27T03:57:41.683Z,92.9
2017-04-27T03:58:42.933Z,93.75
2017-04-27T03:59:44.155Z,93.47
2017-04-27T04:00:45.399Z,93.47
2017-04-27T04:01:46.736Z,93.47
2017-04-27T04:02:48.010Z,93.66
2017-04-27T04:03:49.331Z,93.09
2017-04-27T04:04:50.571Z,93.37
2017-04-27T04:05:51.812Z,93.28
2017-04-27T04:06:53.087Z,93.28
2017-04-27T04:07:54.288Z,93.75
2017-04-27T04:08:55.527Z,93.85
2017-04-27T04:09:56.776Z,94.04
2017-04-27T04:10:58.053Z,93.66
2017-04-27T04:11:59.276Z,93.66
2017-04-27T04:13:00.503Z,93.37
2017-04-27T04:14:01.742Z,93.75
2017-04-27T04:15:03.013Z,94.23
2017-04-27T04:16:04.290Z,94.04
2017-04-27T04:17:05.564Z,94.32
2017-04-27T04:18:06.778Z,94.04
2017-04-27T04:19:08.008Z,94.13
2017-04-27T04:20:09.368Z,94.7
2017-04-27T04:21:10.826Z,94.42
2017-04-27T04:22:12.137Z,94.04
2017-04-27T04:23:13.399Z,93.94
2017-04-27T04:24:14.637Z,94.6
2017-04-27T04:25:15.868Z,94.42
2017-04-27T04:26:17.106Z,94.42
2017-04-27T04:27:18.345Z,94.89
2017-04-27T04:28:19.618Z,94.79
2017-04-27T04:29:21.011Z,94.79
2017-04-27T04:30:22.242Z,94.7
2017-04-27T04:31:23.470Z,94.79
2017-04-27T04:32:24.725Z,94.89
2017-04-27T04:33:25.956Z,94.79
2017-04-27T04:34:27.197Z,94.79
2017-04-27T04:35:28.479Z,94.42
2017-04-27T04:36:29.708Z,94.32
2017-04-27T04:37:30.958Z,94.89
2017-04-27T04:38:32.194Z,94.89
2017-04-27T04:39:33.749Z,94.79
2017-04-27T04:40:35.014Z,95.07
2017-04-27T04:41:36.235Z,95.45
2017-04-27T04:42:37.472Z,95.26
2017-04-27T04:43:38.715Z,95.55
2017-04-27T04:44:39.932Z,95.17
2017-04-27T04:45:41.188Z,95.26
2017-04-27T04:46:42.457Z,94.98
2017-04-27T04:47:43.690Z,95.64
2017-04-27T04:48:44.924Z,94.93
2017-04-27T04:49:46.206Z,95.88
2017-04-27T04:50:47.447Z,95.88
2017-04-27T04:51:48.698Z,95.78
2017-04-27T04:52:49.927Z,95.5
2017-04-27T04:53:51.235Z,95.59
2017-04-27T04:54:52.507Z,95.78
2017-04-27T04:55:53.768Z,96.45
2017-04-27T04:56:55.067Z,96.07
2017-04-27T04:57:56.233Z,96.02
2017-04-27T04:58:57.491Z,95.64
2017-04-27T04:59:58.901Z,95.83
2017-04-27T05:01:00.209Z,95.83
2017-04-27T05:02:01.418Z,96.21
2017-04-27T05:03:02.675Z,96.36
2017-04-27T05:04:03.910Z,96.17
2017-04-27T05:05:05.149Z,96.07
2017-04-27T05:06:06.384Z,96.03
2017-04-27T05:07:07.613Z,96.22
2017-04-27T05:08:08.841Z,93.94
2017-04-27T05:09:10.101Z,93.61
2017-04-27T05:10:11.338Z,91.9
2017-04-27T05:11:12.819Z,90.38
2017-04-27T05:12:13.944Z,88.2
2017-04-27T05:13:15.194Z,85.55
2017-04-27T05:14:16.432Z,84.07
2017-04-27T05:15:17.659Z,82.55
2017-04-27T05:16:18.906Z,82.21
2017-04-27T05:17:20.145Z,80.26
2017-04-27T05:18:21.427Z,78.27
2017-04-27T05:19:22.787Z,75.07
2017-04-27T05:20:24.028Z,72.99
2017-04-27T05:21:25.267Z,70.83
2017-04-27T05:22:26.484Z,69.25
2017-04-27T05:23:27.728Z,68.21
2017-04-27T05:24:29.003Z,67
2017-04-27T05:25:30.258Z,64.65
2017-04-27T05:26:31.490Z,62.78
2017-04-27T05:27:32.728Z,60.05
2017-04-27T05:28:33.961Z,58.14
2017-04-27T05:29:35.215Z,56.07
2017-04-27T05:30:36.611Z,55.69
2017-04-27T05:31:37.796Z,55.24
2017-04-27T05:32:39.074Z,53.65
2017-04-27T05:33:40.293Z,52.31
2017-04-27T05:34:41.533Z,51.29
2017-04-27T05:35:42.782Z,49.88
2017-04-27T05:36:44.025Z,47.52
2017-04-27T05:37:45.284Z,45.81
2017-04-27T05:38:46.543Z,44.69
2017-04-27T05:39:47.801Z,45.17
2017-04-27T05:40:49.028Z,42.51
2017-04-27T05:41:50.270Z,40.59
2017-04-27T05:42:51.558Z,39.47
2017-04-27T05:43:52.774Z,38.98
2017-04-27T05:44:54.060Z,38.89
2017-04-27T05:45:55.294Z,38.24
2017-04-27T05:46:56.533Z,38.53
2017-04-27T05:47:57.804Z,38.74
2017-04-27T05:48:59.093Z,37.32
2017-04-27T05:50:00.315Z,35.99
2017-04-27T05:51:01.629Z,35.03
2017-04-27T05:52:02.882Z,34.94
2017-04-27T05:53:04.154Z,34.27
2017-04-27T05:54:05.418Z,33.23
2017-04-27T05:55:06.648Z,32.28
2017-04-27T05:56:07.900Z,31.15
2017-04-27T05:57:09.206Z,30.87
2017-04-27T05:58:10.443Z,30.19
2017-04-27T05:59:11.684Z,30.87
2017-04-27T06:00:12.927Z,30.68
2017-04-27T06:01:14.151Z,30.21
2017-04-27T06:02:15.407Z,29.54
2017-04-27T06:03:16.745Z,29.35
2017-04-27T06:04:17.990Z,28.48
2017-04-27T06:05:19.232Z,28
2017-04-27T06:06:20.479Z,27.53
2017-04-27T06:07:21.754Z,27.16
2017-04-27T06:08:23.075Z,26.58
2017-04-27T06:09:24.354Z,26.02
2017-04-27T06:10:25.584Z,25.46
2017-04-27T06:11:26.967Z,24.5
2017-04-27T06:12:28.191Z,24.02
2017-04-27T06:13:29.440Z,23.65
2017-04-27T06:14:30.695Z,23.82
2017-04-27T06:15:31.940Z,23.81
2017-04-27T06:16:33.214Z,24.58
2017-04-27T06:17:34.597Z,24.22
2017-04-27T06:18:35.861Z,22.87
2017-04-27T06:19:37.161Z,22.29
2017-04-27T06:20:38.405Z,22.58
2017-04-27T06:21:39.793Z,22.5
2017-04-27T06:22:41.033Z,22.41
2017-04-27T06:23:42.378Z,22.12
2017-04-27T06:24:43.676Z,22.02
2017-04-27T06:25:44.991Z,21.64
2017-04-27T06:26:46.243Z,21.62
2017-04-27T06:27:47.522Z,21.15
2017-04-27T06:28:48.785Z,21.07
2017-04-27T06:29:50.030Z,20.97
2017-04-27T06:30:51.300Z,20.87
2017-04-27T06:31:52.552Z,20.98
2017-04-27T06:32:53.963Z,20.03
2017-04-27T06:33:55.329Z,19.45
2017-04-27T06:34:56.566Z,18.87
2017-04-27T06:35:57.789Z,18.69
2017-04-27T06:36:59.036Z,18.69
2017-04-27T06:38:00.292Z,18.01
2017-04-27T06:39:01.551Z,18.4
2017-04-27T06:40:02.925Z,17.91
2017-04-27T06:41:04.234Z,17.82
2017-04-27T06:42:05.511Z,18.4
2017-04-27T06:43:06.722Z,17.33
2017-04-27T06:44:07.982Z,17.44
2017-04-27T06:45:09.238Z,16.86
2017-04-27T06:46:10.488Z,16.2
2017-04-27T06:47:11.787Z,15.34
2017-04-27T06:48:13.007Z,14.67
2017-04-27T06:49:14.267Z,14.87
2017-04-27T06:50:15.595Z,13.7
2017-04-27T06:51:16.859Z,14.18
2017-04-27T06:52:18.109Z,13.59
2017-04-27T06:53:19.364Z,14.07
2017-04-27T06:54:20.633Z,14.36
2017-04-27T06:55:21.879Z,14.37
2017-04-27T06:56:23.139Z,14.18
2017-04-27T06:57:24.395Z,14.47
2017-04-27T06:58:25.671Z,14.18
2017-04-27T06:59:27.062Z,13.89
2017-04-27T07:00:28.322Z,14.28
2017-04-27T07:01:29.566Z,13.59
2017-04-27T07:02:30.877Z,13.89
2017-04-27T07:03:32.145Z,13.89
2017-04-27T07:04:33.403Z,13.5
2017-04-27T07:05:34.694Z,13.31
2017-04-27T07:06:35.936Z,13.12
2017-04-27T07:07:37.280Z,12.45
2017-04-27T07:08:38.553Z,12.15
2017-04-27T07:09:39.780Z,11.96
2017-04-27T07:10:41.081Z,11.87
2017-04-27T07:11:42.359Z,11.96
2017-04-27T07:12:43.657Z,12.35
2017-04-27T07:13:44.906Z,12.34
2017-04-27T07:14:46.175Z,12.53
2017-04-27T07:15:47.413Z,13.01
2017-04-27T07:16:48.827Z,12.43
2017-04-27T07:17:50.087Z,12.73
2017-04-27T07:18:51.330Z,12.44
2017-04-27T07:19:52.620Z,12.14
2017-04-27T07:20:53.939Z,12.34
2017-04-27T07:21:55.286Z,12.24
2017-04-27T07:22:56.605Z,12.82
2017-04-27T07:23:57.855Z,13.2
2017-04-27T07:24:59.113Z,13.47
2017-04-27T07:26:00.368Z,13.56
2017-04-27T07:27:01.676Z,14.62
2017-04-27T07:28:03.008Z,14.9
2017-04-27T07:29:04.490Z,15.66
2017-04-27T07:30:05.743Z,16.71
2017-04-27T07:31:07.086Z,18.04
2017-04-27T07:32:08.333Z,19.47
2017-04-27T07:33:09.682Z,20.04
2017-04-27T07:34:11.083Z,20.25
2017-04-27T07:35:12.335Z,19.4
2017-04-27T07:36:13.628Z,18.93
2017-04-27T07:37:15.019Z,17.4
2017-04-27T07:38:16.395Z,16.62
2017-04-27T07:39:17.578Z,16.41
2017-04-27T07:40:18.821Z,16.79
2017-04-27T07:41:20.090Z,17.75
2017-04-27T07:42:21.338Z,17.36
2017-04-27T07:43:22.759Z,17.36
2017-04-27T07:44:24.010Z,16.79
2017-04-27T07:45:25.280Z,16.99
2017-04-27T07:46:26.580Z,17.25
2017-04-27T07:47:27.823Z,18.12
2017-04-27T07:48:29.073Z,19.65
2017-04-27T07:49:30.331Z,19.55
2017-04-27T07:50:31.611Z,19.08
2017-04-27T07:51:32.886Z,18.52
2017-04-27T07:52:34.145Z,17.1
2017-04-27T07:53:35.442Z,15.37
2017-04-27T07:54:36.659Z,14.03
2017-04-27T07:55:37.905Z,13.17
2017-04-27T07:56:39.269Z,12.4
2017-04-27T07:57:40.514Z,12.3
2017-04-27T07:58:41.771Z,12.11
2017-04-27T07:59:43.142Z,12.41
2017-04-27T08:00:44.415Z,12.51
2017-04-27T08:01:45.911Z,12.32
2017-04-27T08:02:47.163Z,12.31
2017-04-27T08:03:48.410Z,13.27
2017-04-27T08:04:49.663Z,12.97
2017-04-27T08:05:50.939Z,13.64
2017-04-27T08:06:52.215Z,13.91
2017-04-27T08:07:53.538Z,14.86
2017-04-27T08:08:54.794Z,15.91
2017-04-27T08:09:56.043Z,16.75
2017-04-27T08:10:57.317Z,18.18
2017-04-27T08:11:58.563Z,19.13
2017-04-27T08:12:59.884Z,19.9
2017-04-27T08:14:01.121Z,20.01
2017-04-27T08:15:02.488Z,18.68
2017-04-27T08:16:03.754Z,17.45
2017-04-27T08:17:05.024Z,16.31
2017-04-27T08:18:06.299Z,14.87
2017-04-27T08:19:07.677Z,13.06
2017-04-27T08:20:08.959Z,11.23
2017-04-27T08:21:10.294Z,10.75
2017-04-27T08:22:11.558Z,9.6
2017-04-27T08:23:12.813Z,9.03
2017-04-27T08:24:14.062Z,9.91
2017-04-27T08:25:15.329Z,9.52
2017-04-27T08:26:16.722Z,8.45
2017-04-27T08:27:17.970Z,8.27
2017-04-27T08:28:19.354Z,7.59
2017-04-27T08:29:20.598Z,7.49
2017-04-27T08:30:21.881Z,7.1
2017-04-27T08:31:23.139Z,7.01
2017-04-27T08:32:24.467Z,7.01
2017-04-27T08:33:25.704Z,7.78
2017-04-27T08:34:26.955Z,8.26
2017-04-27T08:35:28.203Z,8.63
2017-04-27T08:36:29.478Z,10.08
2017-04-27T08:37:30.783Z,9.98
2017-04-27T08:38:32.033Z,9.4
2017-04-27T08:39:33.288Z,9.01
2017-04-27T08:40:34.536Z,9.5
2017-04-27T08:41:35.815Z,9.41
2017-04-27T08:42:37.081Z,9.22
2017-04-27T08:43:38.348Z,8.55
2017-04-27T08:44:39.594Z,8.37
2017-04-27T08:45:40.844Z,7.59
2017-04-27T08:46:42.098Z,7.5
2017-04-27T08:47:43.365Z,7.31
2017-04-27T08:48:44.753Z,7.4
2017-04-27T08:49:46.011Z,7.1
2017-04-27T08:50:47.268Z,7.97
2017-04-27T08:51:48.534Z,8.54
2017-04-27T08:52:49.787Z,8.54
2017-04-27T08:53:51.090Z,8.83
2017-04-27T08:54:52.349Z,10.08
2017-04-27T08:55:53.611Z,10.85
2017-04-27T08:56:54.864Z,10.63
2017-04-27T08:57:56.124Z,11.12
2017-04-27T08:58:57.427Z,10.93
2017-04-27T08:59:58.701Z,11.03
2017-04-27T09:00:59.989Z,11.23
2017-04-27T09:02:01.261Z,9.88
2017-04-27T09:03:02.557Z,8.63
2017-04-27T09:04:03.811Z,8.54
2017-04-27T09:05:05.072Z,8.45
2017-04-27T09:06:06.332Z,8.07
2017-04-27T09:07:07.674Z,7
2017-04-27T09:08:08.984Z,7.1
2017-04-27T09:09:10.254Z,7.68
2017-04-27T09:10:11.505Z,7.01
2017-04-27T09:11:12.770Z,6.53
2017-04-27T09:12:14.012Z,5.76
2017-04-27T09:13:15.293Z,4.59
2017-04-27T09:14:16.555Z,4.79
2017-04-27T09:15:17.810Z,5.08
2017-04-27T09:16:19.088Z,5.47
2017-04-27T09:17:20.325Z,6.05
2017-04-27T09:18:21.692Z,5.85
2017-04-27T09:19:23.110Z,7.1
2017-04-27T09:20:24.398Z,7.97
2017-04-27T09:21:25.677Z,8.34
2017-04-27T09:22:26.928Z,9.02
2017-04-27T09:23:28.172Z,9.89
2017-04-27T09:24:29.506Z,9.41
2017-04-27T09:25:30.790Z,8.35
2017-04-27T09:26:32.032Z,8.06
2017-04-27T09:27:33.280Z,8.07
2017-04-27T09:28:34.552Z,7.1
2017-04-27T09:29:35.820Z,5.45
2017-04-27T09:30:37.111Z,4.87
2017-04-27T09:31:38.387Z,4.28
2017-04-27T09:32:39.650Z,4.38
2017-04-27T09:33:40.917Z,4.28
2017-04-27T09:34:42.187Z,4.47
2017-04-27T09:35:43.461Z,4.47
2017-04-27T09:36:44.824Z,4.86
2017-04-27T09:37:46.173Z,5.63
2017-04-27T09:38:47.340Z,7.55
2017-04-27T09:39:48.609Z,9.38
2017-04-27T09:40:49.846Z,10.25
2017-04-27T09:41:51.122Z,10.73
2017-04-27T09:42:52.378Z,10.75
2017-04-27T09:43:53.640Z,10.06
2017-04-27T09:44:54.904Z,10.45
2017-04-27T09:45:56.160Z,10.65
2017-04-27T09:46:57.531Z,9.49
2017-04-27T09:47:58.796Z,8.81
2017-04-27T09:49:00.050Z,8.14
2017-04-27T09:50:01.425Z,8.23
2017-04-27T09:51:02.690Z,9.3
2017-04-27T09:52:03.980Z,8.14
2017-04-27T09:53:05.223Z,8.06
2017-04-27T09:54:06.467Z,7.39
2017-04-27T09:55:07.790Z,6.71
2017-04-27T09:56:09.038Z,5.94
2017-04-27T09:57:10.358Z,4.78
2017-04-27T09:58:11.613Z,4
2017-04-27T09:59:12.862Z,3.52
2017-04-27T10:00:14.114Z,3.7
2017-04-27T10:01:15.373Z,3.9
2017-04-27T10:02:16.631Z,4.29
2017-04-27T10:03:17.892Z,4.49
2017-04-27T10:04:19.140Z,4.49
2017-04-27T10:05:20.401Z,4.49
2017-04-27T10:06:21.752Z,3.9
2017-04-27T10:07:23.050Z,4.49
2017-04-27T10:08:24.350Z,3.22
2017-04-27T10:09:25.613Z,3.22
2017-04-27T10:10:26.864Z,2.83
2017-04-27T10:11:28.103Z,3.33
2017-04-27T10:12:29.365Z,2.74
2017-04-27T10:13:30.763Z,2.25
2017-04-27T10:14:31.982Z,1.96
2017-04-27T10:15:33.229Z,2.06
2017-04-27T10:16:34.498Z,1.86
2017-04-27T10:17:35.759Z,2.06
2017-04-27T10:18:37.030Z,1.27
2017-04-27T10:19:38.297Z,2.74
2017-04-27T10:20:39.574Z,3.42
2017-04-27T10:21:40.825Z,2.93
2017-04-27T10:22:42.076Z,3.52
2017-04-27T10:23:43.345Z,3.61
2017-04-27T10:24:44.597Z,4
2017-04-27T10:25:45.883Z,4.39
2017-04-27T10:26:47.146Z,4.87
2017-04-27T10:27:48.449Z,5.16
2017-04-27T10:28:49.690Z,5.93
2017-04-27T10:29:50.941Z,6.89
2017-04-27T10:30:52.220Z,7.65
2017-04-27T10:31:53.545Z,8.91
2017-04-27T10:32:54.809Z,9.58
2017-04-27T10:33:56.076Z,10.34
2017-04-27T10:34:57.382Z,11.39
2017-04-27T10:35:58.645Z,11.38
2017-04-27T10:36:59.909Z,12.83
2017-04-27T10:38:01.170Z,13.21
2017-04-27T10:39:02.431Z,14.16
2017-04-27T10:40:03.687Z,14.73
2017-04-27T10:41:04.927Z,14.83
2017-04-27T10:42:06.210Z,14.83
2017-04-27T10:43:07.450Z,14.45
2017-04-27T10:44:08.931Z,13.2
2017-04-27T10:45:10.206Z,13.1
2017-04-27T10:46:11.435Z,13.2
2017-04-27T10:47:12.700Z,13.49
2017-04-27T10:48:13.945Z,12.9
2017-04-27T10:49:15.221Z,14.63
2017-04-27T10:50:16.472Z,15.2
2017-04-27T10:51:17.765Z,15.59
2017-04-27T10:52:19.018Z,15.77
2017-04-27T10:53:20.271Z,16.44
2017-04-27T10:54:21.584Z,18.44
2017-04-27T10:55:22.809Z,19.4
2017-04-27T10:56:24.070Z,20.15
2017-04-27T10:57:25.309Z,21.21
2017-04-27T10:58:26.614Z,21.3
2017-04-27T10:59:27.889Z,21.97
2017-04-27T11:00:29.136Z,22.25
2017-04-27T11:01:30.365Z,22.44
2017-04-27T11:02:31.616Z,22.15
2017-04-27T11:03:32.923Z,23.58
2017-04-27T11:04:34.243Z,24.35
2017-04-27T11:05:35.459Z,23.39
2017-04-27T11:06:36.707Z,23.58
2017-04-27T11:07:37.973Z,23.78
2017-04-27T11:08:39.239Z,24.24
2017-04-27T11:09:40.540Z,23.67
2017-04-27T11:10:41.759Z,23.57
2017-04-27T11:11:42.999Z,23.37
2017-04-27T11:12:44.246Z,22.78
2017-04-27T11:13:45.485Z,23.46
2017-04-27T11:14:46.877Z,24.32
2017-04-27T11:15:48.148Z,24.41
2017-04-27T11:16:49.454Z,23.46
2017-04-27T11:17:50.725Z,22.49
2017-04-27T11:18:51.969Z,22.11
2017-04-27T11:19:53.289Z,22.3
2017-04-27T11:20:54.593Z,22.77
2017-04-27T11:21:55.897Z,23.62
2017-04-27T11:22:57.199Z,24.1
2017-04-27T11:23:58.442Z,23.54
2017-04-27T11:24:59.697Z,23.24
2017-04-27T11:26:01.005Z,22.67
2017-04-27T11:27:02.213Z,24.49
2017-04-27T11:28:03.472Z,24.96
2017-04-27T11:29:04.723Z,25.55
2017-04-27T11:30:05.960Z,25.54
2017-04-27T11:31:07.211Z,24.77
2017-04-27T11:32:08.456Z,24.59
2017-04-27T11:33:09.789Z,24.59
2017-04-27T11:34:11.148Z,24.5
2017-04-27T11:35:12.422Z,23.63
2017-04-27T11:36:13.733Z,23.35
2017-04-27T11:37:14.961Z,23.83
2017-04-27T11:38:16.210Z,24.21
2017-04-27T11:39:17.464Z,25.07
2017-04-27T11:40:18.689Z,25.45
2017-04-27T11:41:19.939Z,24.59
2017-04-27T11:42:21.180Z,24.69
2017-04-27T11:43:22.434Z,24.4
2017-04-27T11:44:23.672Z,24.69
2017-04-27T11:45:25.083Z,23.92
2017-04-27T11:46:26.463Z,23.25
2017-04-27T11:47:27.724Z,23.35
2017-04-27T11:48:28.965Z,25.06
2017-04-27T11:49:30.202Z,25.82
2017-04-27T11:50:31.480Z,25.54
2017-04-27T11:51:32.734Z,25.82
2017-04-27T11:52:33.990Z,26.11
2017-04-27T11:53:35.292Z,26.68
2017-04-27T11:54:36.565Z,26.31
2017-04-27T11:55:37.789Z,24.69
2017-04-27T11:56:39.109Z,24.39
2017-04-27T11:57:40.377Z,24.88
2017-04-27T11:58:41.599Z,24.77
2017-04-27T11:59:42.844Z,26.22
2017-04-27T12:00:44.110Z,26.4
2017-04-27T12:01:45.334Z,26.21
2017-04-27T12:02:46.577Z,27.47
2017-04-27T12:03:47.839Z,26.59
2017-04-27T12:04:49.131Z,25.82
2017-04-27T12:05:50.388Z,27.26
2017-04-27T12:06:51.615Z,27.26
2017-04-27T12:07:52.865Z,26.4
2017-04-27T12:08:54.108Z,26.5
2017-04-27T12:09:55.352Z,24.58
2017-04-27T12:10:56.615Z,26.21
2017-04-27T12:11:57.855Z,25.93
2017-04-27T12:12:59.100Z,25.36
2017-04-27T12:14:00.332Z,23.54
2017-04-27T12:15:01.684Z,23.53
2017-04-27T12:16:03.080Z,24.1
2017-04-27T12:17:04.222Z,24.87
2017-04-27T12:18:05.484Z,25.35
2017-04-27T12:19:06.789Z,25.82
2017-04-27T12:20:08.056Z,25.82
2017-04-27T12:21:09.320Z,25.06
2017-04-27T12:22:10.568Z,24.96
2017-04-27T12:23:11.914Z,24.59
2017-04-27T12:24:13.241Z,24.3
2017-04-27T12:25:14.619Z,24.11
2017-04-27T12:26:15.885Z,24.21
2017-04-27T12:27:17.223Z,23.83
2017-04-27T12:28:18.455Z,23.93
2017-04-27T12:29:19.742Z,24.13
2017-04-27T12:30:20.991Z,23.84
2017-04-27T12:31:22.246Z,23.55
2017-04-27T12:32:23.503Z,23.07
2017-04-27T12:33:24.737Z,22.41
2017-04-27T12:34:26.036Z,21.74
2017-04-27T12:35:27.287Z,21.55
2017-04-27T12:36:28.530Z,20.87
2017-04-27T12:37:29.787Z,20.39
2017-04-27T12:38:31.031Z,20.39
2017-04-27T12:39:32.304Z,21.25
2017-04-27T12:40:33.563Z,21.35
2017-04-27T12:41:34.802Z,22.4
2017-04-27T12:42:36.043Z,23.17
2017-04-27T12:43:37.290Z,22.39
2017-04-27T12:44:38.526Z,22.01
2017-04-27T12:45:39.768Z,21.91
2017-04-27T12:46:41.052Z,22.47
2017-04-27T12:47:42.298Z,23.53
2017-04-27T12:48:43.541Z,23.42
2017-04-27T12:49:44.785Z,23.42
2017-04-27T12:50:46.033Z,24.87
2017-04-27T12:51:47.407Z,25.06
2017-04-27T12:52:48.653Z,24.87
2017-04-27T12:53:49.924Z,25.15
2017-04-27T12:54:51.197Z,22.19
2017-04-27T12:55:52.442Z,20.85
2017-04-27T12:56:53.684Z,21.33
2017-04-27T12:57:54.916Z,22.01
2017-04-27T12:58:56.172Z,23.35
2017-04-27T12:59:57.432Z,23.05
2017-04-27T13:00:58.696Z,23.43
2017-04-27T13:01:59.970Z,23.53
2017-04-27T13:03:01.195Z,24.19
2017-04-27T13:04:02.452Z,24.68
2017-04-27T13:05:03.713Z,23.72
2017-04-27T13:06:05.116Z,24.29
2017-04-27T13:07:06.347Z,24.96
2017-04-27T13:08:07.626Z,24.29
2017-04-27T13:09:08.870Z,25.44
2017-04-27T13:10:10.106Z,25.54
2017-04-27T13:11:11.373Z,25.35
2017-04-27T13:12:12.616Z,24.68
2017-04-27T13:13:13.882Z,24.87
2017-04-27T13:14:15.174Z,25.82
2017-04-27T13:15:16.440Z,26.11
2017-04-27T13:16:17.679Z,26.5